Time;durP1;ratioP1;P1;durP2;ratioP2;P2;SDS_P1;SDS_P2;PMS_P1;PMS_P2;Temp;Humidity;BMP_temperature;BMP_pressure;BME280_temperature;BME280_humidity;BME280_pressure;Samples;Min_cycle;Max_cycle;Signal;HPM_P1;HPM_P2
2021/04/18 00:01:27;;;;;;;1999.90;999.90;;;;;;;6.77;92.68;98471.41;5077479;28;20041;-64
2021/04/18 00:03:53;;;;;;;1999.90;999.90;;;;;;;7.11;92.33;98473.88;5066361;28;20377;-64
2021/04/18 00:06:20;;;;;;;1999.90;999.90;;;;;;;6.75;92.67;98479.13;5063579;28;20059;-62
2021/04/18 00:08:48;;;;;;;1999.90;999.90;;;;;;;7.42;91.03;98473.38;5067697;28;20048;-64
2021/04/18 00:11:15;;;;;;;1999.90;999.90;;;;;;;7.67;89.35;98471.28;5069279;28;20082;-64
2021/04/18 00:13:42;;;;;;;1999.90;999.90;;;;;;;7.68;89.04;98473.75;5066730;28;20450;-64
2021/04/18 00:16:08;;;;;;;1999.90;999.90;;;;;;;7.71;88.83;98467.63;5068761;28;20055;-63
2021/04/18 00:18:35;;;;;;;1999.90;999.90;;;;;;;7.71;89.12;98478.63;5065509;28;20053;-63
2021/04/18 00:21:02;;;;;;;1999.90;999.90;;;;;;;7.84;88.46;98470.69;5069231;28;20055;-64
2021/04/18 00:23:28;;;;;;;1999.90;999.90;;;;;;;7.47;89.79;98478.78;5065862;28;20129;-64
2021/04/18 00:25:54;;;;;;;1999.90;999.90;;;;;;;7.23;89.67;98468.75;5065901;28;20052;-64
2021/04/18 00:28:20;;;;;;;1999.90;999.90;;;;;;;7.02;91.90;98468.25;5067109;28;20050;-64
2021/04/18 00:30:46;;;;;;;1999.90;999.90;;;;;;;7.19;91.67;98475.13;5066903;28;20380;-64
2021/04/18 00:33:13;;;;;;;1999.90;999.90;;;;;;;7.56;89.74;98467.91;5067954;28;20049;-64
2021/04/18 00:35:39;;;;;;;1999.90;999.90;;;;;;;7.72;89.22;98474.75;5067390;28;20122;-64
2021/04/18 00:38:05;;;;;;;1999.90;999.90;;;;;;;7.71;88.86;98469.53;5065573;28;20048;-63
2021/04/18 00:40:31;;;;;;;1999.90;999.90;;;;;;;7.22;90.66;98469.06;5064434;28;20565;-64
2021/04/18 00:42:57;;;;;;;1999.90;999.90;;;;;;;7.38;89.88;98464.91;5069187;28;20127;-64
2021/04/18 00:45:23;;;;;;;1999.90;999.90;;;;;;;7.41;89.70;98468.97;5062998;28;20044;-64
2021/04/18 00:47:52;;;;;;;1999.90;999.90;;;;;;;7.53;90.04;98466.59;5065214;28;20114;-64
2021/04/18 00:50:26;;;;;;;1999.90;999.90;;;;;;;7.37;89.86;98470.72;5064925;28;20101;-64
2021/04/18 00:52:53;;;;;;;1999.90;999.90;;;;;;;7.48;89.97;98463.09;5064399;28;20056;-64
2021/04/18 00:55:23;;;;;;;1999.90;999.90;;;;;;;7.87;88.76;98459.88;5067286;28;20381;-65
2021/04/18 00:57:50;;;;;;;1999.90;999.90;;;;;;;7.98;88.02;98463.25;5067512;28;20102;-64
2021/04/18 01:00:16;;;;;;;1999.90;999.90;;;;;;;8.18;87.20;98459.25;5066745;28;20047;-64
2021/04/18 01:02:43;;;;;;;1999.90;999.90;;;;;;;8.24;86.60;98451.72;5066550;28;20565;-64
2021/04/18 01:05:09;;;;;;;1999.90;999.90;;;;;;;8.27;86.38;98448.34;5067927;28;20045;-64
2021/04/18 01:07:36;;;;;;;1999.90;999.90;;;;;;;8.27;86.45;98446.41;5061650;28;20510;-64
2021/04/18 01:10:07;;;;;;;1999.90;999.90;;;;;;;8.32;85.90;98455.69;5068234;28;20055;-64
2021/04/18 01:12:34;;;;;;;1999.90;999.90;;;;;;;8.30;86.10;98447.72;5062301;28;20045;-64
2021/04/18 01:15:00;;;;;;;1999.90;999.90;;;;;;;8.31;86.10;98445.78;5068085;28;20048;-64
2021/04/18 01:17:27;;;;;;;1999.90;999.90;;;;;;;8.34;85.90;98443.25;5067094;28;20044;-65
2021/04/18 01:19:53;;;;;;;1999.90;999.90;;;;;;;8.34;85.83;98446.00;5066722;28;20136;-64
2021/04/18 01:22:20;;;;;;;1999.90;999.90;;;;;;;8.33;86.12;98441.59;5065804;28;20048;-64
2021/04/18 01:24:46;;;;;;;1999.90;999.90;;;;;;;8.26;86.38;98438.44;5067527;28;20040;-64
2021/04/18 01:27:15;;;;;;;1999.90;999.90;;;;;;;8.39;85.94;98440.34;5065557;28;20048;-64
2021/04/18 01:29:42;;;;;;;1999.90;999.90;;;;;;;8.26;86.17;98438.44;5065032;28;20485;-64
2021/04/18 01:32:08;;;;;;;1999.90;999.90;;;;;;;8.31;85.88;98434.75;5062439;28;20449;-64
2021/04/18 01:34:44;;;;;;;1999.90;999.90;;;;;;;8.25;86.19;98436.84;5065250;28;20041;-64
2021/04/18 01:37:16;;;;;;;1999.90;999.90;;;;;;;8.18;86.15;98439.97;5064022;28;20091;-64
2021/04/18 01:39:43;;;;;;;1999.90;999.90;;;;;;;8.10;86.02;98444.28;5061905;28;20049;-64
2021/04/18 01:42:10;;;;;;;1999.90;999.90;;;;;;;8.07;86.75;98438.59;5062312;28;20056;-64
2021/04/18 01:44:37;;;;;;;1999.90;999.90;;;;;;;8.26;86.19;98438.44;5064250;28;20044;-64
2021/04/18 01:47:04;;;;;;;1999.90;999.90;;;;;;;8.25;86.12;98436.84;5064885;28;20050;-62
2021/04/18 01:49:31;;;;;;;1999.90;999.90;;;;;;;8.27;85.61;98440.88;5066786;28;20072;-62
2021/04/18 01:51:57;;;;;;;1999.90;999.90;;;;;;;8.35;85.58;98431.09;5065907;28;20648;-62
2021/04/18 01:54:23;;;;;;;1999.90;999.90;;;;;;;8.27;85.55;98429.88;5064914;28;20458;-63
2021/04/18 01:56:49;;;;;;;1999.90;999.90;;;;;;;8.21;85.92;98431.09;5066076;28;20048;-63
2021/04/18 01:59:15;;;;;;;1999.90;999.90;;;;;;;8.20;85.71;98429.50;5063888;28;20113;-63
2021/04/18 02:01:41;;;;;;;1999.90;999.90;;;;;;;8.22;85.94;98424.47;5063473;28;20052;-63
2021/04/18 02:04:23;;;;;;;1999.90;999.90;;;;;;;8.18;86.04;98426.22;5064749;28;20068;-63
2021/04/18 02:06:50;;;;;;;1999.90;999.90;;;;;;;8.17;86.22;98421.00;5056002;28;20061;-63
2021/04/18 02:09:16;;;;;;;1999.90;999.90;;;;;;;8.21;86.05;98419.28;5065940;28;20130;-63
2021/04/18 02:11:43;;;;;;;1999.90;999.90;;;;;;;8.16;86.34;98422.97;5066732;28;20063;-63
2021/04/18 02:14:09;;;;;;;1999.90;999.90;;;;;;;8.18;86.26;98414.38;5064370;28;20459;-63
2021/04/18 02:16:35;;;;;;;1999.90;999.90;;;;;;;8.12;86.59;98405.41;5066011;28;20055;-63
2021/04/18 02:19:02;;;;;;;1999.90;999.90;;;;;;;8.06;86.46;98418.47;5064209;28;20045;-63
2021/04/18 02:21:29;;;;;;;1999.90;999.90;;;;;;;8.11;86.23;98407.34;5065996;28;20453;-63
2021/04/18 02:23:55;;;;;;;1999.90;999.90;;;;;;;8.19;86.20;98405.00;5063368;28;20415;-63
2021/04/18 02:26:21;;;;;;;1999.90;999.90;;;;;;;8.10;86.41;98413.97;5065393;28;20044;-63
2021/04/18 02:28:47;;;;;;;1999.90;999.90;;;;;;;8.04;86.53;98409.72;5063194;28;20059;-63
2021/04/18 02:31:14;;;;;;;1999.90;999.90;;;;;;;8.19;86.31;98405.81;5063382;28;20097;-63
2021/04/18 02:33:40;;;;;;;1999.90;999.90;;;;;;;8.26;86.03;98405.38;5066702;28;20052;-63
2021/04/18 02:36:08;;;;;;;1999.90;999.90;;;;;;;8.21;85.63;98408.25;5064557;28;20139;-63
2021/04/18 02:38:34;;;;;;;1999.90;999.90;;;;;;;8.02;86.52;98417.44;5063890;28;20098;-63
2021/04/18 02:41:00;;;;;;;1999.90;999.90;;;;;;;8.09;86.73;98406.03;5072501;28;20483;-63
2021/04/18 02:43:26;;;;;;;1999.90;999.90;;;;;;;8.16;86.19;98406.44;5058504;28;20052;-63
2021/04/18 02:45:52;;;;;;;1999.90;999.90;;;;;;;8.14;86.25;98414.16;5062603;28;20048;-63
2021/04/18 02:48:19;;;;;;;1999.90;999.90;;;;;;;8.08;86.26;98409.91;5066535;28;20097;-63
2021/04/18 02:50:45;;;;;;;1999.90;999.90;;;;;;;7.98;86.57;98410.94;5064548;28;20056;-63
2021/04/18 02:53:11;;;;;;;1999.90;999.90;;;;;;;7.93;87.02;98413.78;5062760;28;20057;-64
2021/04/18 02:55:37;;;;;;;1999.90;999.90;;;;;;;7.94;87.03;98407.16;5064517;28;20095;-63
2021/04/18 02:58:03;;;;;;;1999.90;999.90;;;;;;;8.00;87.36;98405.94;5063343;28;20491;-64
2021/04/18 03:00:29;;;;;;;1999.90;999.90;;;;;;;8.08;86.67;98394.22;5065096;28;20109;-63
2021/04/18 03:02:55;;;;;;;1999.90;999.90;;;;;;;8.18;86.14;98397.88;5063105;28;20125;-62
2021/04/18 03:05:21;;;;;;;1999.90;999.90;;;;;;;8.24;86.04;98397.44;5064977;28;20498;-62
2021/04/18 03:07:48;;;;;;;1999.90;999.90;;;;;;;8.31;85.94;98394.25;5060410;28;20411;-63
2021/04/18 03:10:14;;;;;;;1999.90;999.90;;;;;;;8.16;85.86;98400.09;5066913;28;20174;-63
2021/04/18 03:12:40;;;;;;;1999.90;999.90;;;;;;;8.27;85.76;98385.78;5063850;28;20052;-62
2021/04/18 03:15:08;;;;;;;1999.90;999.90;;;;;;;8.26;85.84;98394.34;5078888;28;20049;-62
2021/04/18 03:17:34;;;;;;;1999.90;999.90;;;;;;;8.26;85.68;98378.66;5064646;28;20056;-63
2021/04/18 03:20:00;;;;;;;1999.90;999.90;;;;;;;8.24;85.57;98385.59;5068284;28;20139;-63
2021/04/18 03:22:26;;;;;;;1999.90;999.90;;;;;;;8.05;85.95;98386.56;5068804;28;20052;-63
2021/04/18 03:24:52;;;;;;;1999.90;999.90;;;;;;;7.99;86.64;98378.69;5066563;28;20661;-63
2021/04/18 03:27:19;;;;;;;1999.90;999.90;;;;;;;7.94;86.54;98387.88;5071042;28;20040;-63
2021/04/18 03:29:45;;;;;;;1999.90;999.90;;;;;;;7.85;86.83;98384.22;5065782;28;20052;-63
2021/04/18 03:32:11;;;;;;;1999.90;999.90;;;;;;;7.39;89.32;98395.00;5068923;28;20102;-63
2021/04/18 03:34:37;;;;;;;1999.90;999.90;;;;;;;7.57;88.92;98392.47;5065245;28;20134;-63
2021/04/18 03:37:03;;;;;;;1999.90;999.90;;;;;;;7.71;88.01;98387.81;5064972;28;20117;-63
2021/04/18 03:39:29;;;;;;;1999.90;999.90;;;;;;;7.75;88.29;98391.56;5065432;28;20568;-63
2021/04/18 03:41:55;;;;;;;1999.90;999.90;;;;;;;7.84;87.94;98390.84;5070100;28;20048;-62
2021/04/18 03:44:22;;;;;;;1999.90;999.90;;;;;;;8.04;86.97;98384.94;5061608;28;20045;-63
2021/04/18 03:46:48;;;;;;;1999.90;999.90;;;;;;;7.93;87.12;98387.09;5064729;28;20056;-63
2021/04/18 03:49:14;;;;;;;1999.90;999.90;;;;;;;7.84;87.73;98388.09;5065438;28;20053;-63
2021/04/18 03:51:46;;;;;;;1999.90;999.90;;;;;;;8.06;87.25;98377.16;5067356;28;20109;-62
2021/04/18 03:54:13;;;;;;;1999.90;999.90;;;;;;;8.00;87.00;98386.66;5066159;28;20298;-64
2021/04/18 03:56:39;;;;;;;1999.90;999.90;;;;;;;8.14;86.78;98380.31;5064387;28;20068;-63
2021/04/18 03:59:05;;;;;;;1999.90;999.90;;;;;;;8.23;86.25;98389.47;5066779;28;20505;-64
2021/04/18 04:01:32;;;;;;;1999.90;999.90;;;;;;;8.22;86.30;98382.34;5066210;28;20106;-63
2021/04/18 04:03:58;;;;;;;1999.90;999.90;;;;;;;8.26;85.82;98378.66;5062080;28;20129;-63
2021/04/18 04:06:24;;;;;;;1999.90;999.90;;;;;;;8.28;86.02;98376.41;5068316;28;20106;-63
2021/04/18 04:08:50;;;;;;;1999.90;999.90;;;;;;;8.23;86.13;98384.78;5067530;28;20056;-64
2021/04/18 04:11:17;;;;;;;1999.90;999.90;;;;;;;8.17;86.36;98382.44;5061587;28;20045;-63
2021/04/18 04:13:43;;;;;;;1999.90;999.90;;;;;;;8.22;86.50;98377.66;5066200;28;20117;-64
2021/04/18 04:16:09;;;;;;;1999.90;999.90;;;;;;;8.25;86.15;98378.97;5069106;28;20572;-63
2021/04/18 04:18:35;;;;;;;1999.90;999.90;;;;;;;8.38;85.94;98380.03;5064413;28;20047;-64
2021/04/18 04:21:01;;;;;;;1999.90;999.90;;;;;;;8.31;85.80;98374.97;5070279;28;20044;-63
2021/04/18 04:23:27;;;;;;;1999.90;999.90;;;;;;;7.99;86.21;98367.69;5063324;28;20538;-63
2021/04/18 04:25:53;;;;;;;1999.90;999.90;;;;;;;7.80;87.92;98376.06;5068543;28;20051;-63
2021/04/18 04:28:20;;;;;;;1999.90;999.90;;;;;;;7.98;87.84;98377.06;5067979;28;20135;-63
2021/04/18 04:30:46;;;;;;;1999.90;999.90;;;;;;;7.91;87.69;98369.22;5067216;28;20393;-63
2021/04/18 04:33:12;;;;;;;1999.90;999.90;;;;;;;7.97;87.23;98380.97;5066407;28;20060;-63
2021/04/18 04:35:40;;;;;;;1999.90;999.90;;;;;;;7.78;87.74;98378.31;5064426;28;20503;-64
2021/04/18 04:38:06;;;;;;;1999.90;999.90;;;;;;;7.99;87.68;98370.44;5059040;28;20138;-63
2021/04/18 04:40:32;;;;;;;1999.90;999.90;;;;;;;8.12;87.27;98377.88;5065330;28;20049;-64
2021/04/18 04:42:59;;;;;;;1999.90;999.90;;;;;;;8.07;87.29;98378.00;5064631;28;20478;-64
2021/04/18 04:45:26;;;;;;;1999.90;999.90;;;;;;;7.84;88.27;98377.91;5066566;28;20056;-63
2021/04/18 04:47:52;;;;;;;1999.90;999.90;;;;;;;7.49;89.30;98376.66;5069244;28;20052;-63
2021/04/18 04:50:20;;;;;;;1999.90;999.90;;;;;;;7.73;89.31;98376.50;5063729;28;20059;-63
2021/04/18 04:52:46;;;;;;;1999.90;999.90;;;;;;;7.96;88.35;98377.38;5067456;28;20070;-64
2021/04/18 04:55:14;;;;;;;1999.90;999.90;;;;;;;7.75;88.73;98380.53;5067661;28;20040;-64
2021/04/18 04:57:40;;;;;;;1999.90;999.90;;;;;;;7.72;89.29;98375.66;5068755;28;20048;-63
2021/04/18 05:00:07;;;;;;;1999.90;999.90;;;;;;;7.67;89.42;98369.47;5063841;28;20056;-63
2021/04/18 05:02:34;;;;;;;1999.90;999.90;;;;;;;7.54;90.05;98379.34;5065899;28;20186;-63
2021/04/18 05:05:01;;;;;;;1999.90;999.90;;;;;;;7.67;89.21;98374.97;5067560;28;20083;-63
2021/04/18 05:07:27;;;;;;;1999.90;999.90;;;;;;;7.98;88.65;98368.81;5064383;28;20048;-63
2021/04/18 05:09:53;;;;;;;1999.90;999.90;;;;;;;7.97;88.41;98370.75;5068721;28;20106;-63
2021/04/18 05:12:19;;;;;;;1999.90;999.90;;;;;;;8.12;88.15;98377.88;5063645;28;20497;-63
2021/04/18 05:14:45;;;;;;;1999.90;999.90;;;;;;;8.24;87.75;98369.06;5069187;28;20126;-63
2021/04/18 05:17:13;;;;;;;1999.90;999.90;;;;;;;8.35;87.26;98370.47;5062789;28;20098;-64
2021/04/18 05:19:39;;;;;;;1999.90;999.90;;;;;;;8.49;86.90;98380.69;5067328;28;20094;-64
2021/04/18 05:22:05;;;;;;;1999.90;999.90;;;;;;;8.23;87.28;98373.78;5064805;28;20052;-64
2021/04/18 05:24:31;;;;;;;1999.90;999.90;;;;;;;7.85;88.88;98378.72;5067152;28;20096;-64
2021/04/18 05:26:58;;;;;;;1999.90;999.90;;;;;;;7.90;89.15;98386.88;5063160;28;20404;-63
2021/04/18 05:29:24;;;;;;;1999.90;999.90;;;;;;;8.03;88.46;98391.56;5065604;28;20105;-64
2021/04/18 05:31:50;;;;;;;1999.90;999.90;;;;;;;7.89;89.09;98393.50;5067214;28;20198;-64
2021/04/18 05:34:16;;;;;;;1999.90;999.90;;;;;;;7.88;89.25;98389.94;5065274;28;20137;-64
2021/04/18 05:36:42;;;;;;;1999.90;999.90;;;;;;;7.97;88.66;98386.47;5063674;28;20105;-64
2021/04/18 05:39:10;;;;;;;1999.90;999.90;;;;;;;8.05;88.38;98381.06;5062892;28;20048;-62
2021/04/18 05:41:36;;;;;;;1999.90;999.90;;;;;;;7.78;89.53;98384.63;5064437;28;20044;-63
2021/04/18 05:44:04;;;;;;;1999.90;999.90;;;;;;;7.55;90.85;98384.53;5063721;28;20557;-63
2021/04/18 05:46:30;;;;;;;1999.90;999.90;;;;;;;7.99;89.51;98396.03;5068908;28;20052;-63
2021/04/18 05:48:57;;;;;;;1999.90;999.90;;;;;;;8.20;88.65;98379.91;5064038;28;20472;-64
2021/04/18 05:51:23;;;;;;;1999.90;999.90;;;;;;;8.17;88.49;98387.97;5079672;28;20491;-64
2021/04/18 05:53:52;;;;;;;1999.90;999.90;;;;;;;7.94;88.79;98387.88;5065037;28;20044;-63
2021/04/18 05:56:18;;;;;;;1999.90;999.90;;;;;;;7.95;89.85;98389.53;5065911;28;20049;-64
2021/04/18 05:58:44;;;;;;;1999.90;999.90;;;;;;;7.49;90.41;98393.19;5067447;28;20048;-64
2021/04/18 06:01:10;;;;;;;1999.90;999.90;;;;;;;7.48;91.24;98397.06;5063638;28;20545;-63
2021/04/18 06:03:37;;;;;;;1999.90;999.90;;;;;;;7.32;91.81;98404.78;5067552;28;20057;-64
2021/04/18 06:06:05;;;;;;;1999.90;999.90;;;;;;;7.07;93.81;98406.03;5064345;28;20136;-64
2021/04/18 06:08:31;;;;;;;1999.90;999.90;;;;;;;7.18;93.51;98407.50;5062820;28;20052;-64
2021/04/18 06:10:57;;;;;;;1999.90;999.90;;;;;;;7.07;93.83;98409.59;5063565;28;20059;-63
2021/04/18 06:13:23;;;;;;;1999.90;999.90;;;;;;;7.00;94.42;98415.50;5067727;28;20052;-64
2021/04/18 06:15:49;;;;;;;1999.90;999.90;;;;;;;6.74;96.09;98406.03;5063133;28;20044;-63
2021/04/18 06:18:16;;;;;;;1999.90;999.90;;;;;;;6.73;95.92;98409.88;5067330;28;20052;-64
2021/04/18 06:20:42;;;;;;;1999.90;999.90;;;;;;;6.46;97.34;98416.88;5064430;28;20066;-63
2021/04/18 06:23:09;;;;;;;1999.90;999.90;;;;;;;6.86;96.44;98409.97;5066498;28;20073;-64
2021/04/18 06:25:35;;;;;;;1999.90;999.90;;;;;;;7.09;95.46;98412.06;5063224;28;20049;-64
2021/04/18 06:28:02;;;;;;;1999.90;999.90;;;;;;;6.87;95.53;98411.56;5064074;28;20287;-64
2021/04/18 06:30:31;;;;;;;1999.90;999.90;;;;;;;6.72;95.60;98413.78;5067489;28;20136;-64
2021/04/18 06:32:57;;;;;;;1999.90;999.90;;;;;;;7.28;94.90;98410.09;5064149;28;20377;-64
2021/04/18 06:35:24;;;;;;;1999.90;999.90;;;;;;;7.30;94.04;98416.09;5061125;28;20070;-64
2021/04/18 06:37:50;;;;;;;1999.90;999.90;;;;;;;7.50;93.98;98411.31;5061249;28;20045;-64
2021/04/18 06:40:16;;;;;;;1999.90;999.90;;;;;;;7.85;91.59;98409.81;5068057;28;20102;-64
2021/04/18 06:42:44;;;;;;;1999.90;999.90;;;;;;;7.37;92.24;98416.50;5061587;28;20121;-64
2021/04/18 06:45:11;;;;;;;1999.90;999.90;;;;;;;7.34;94.07;98414.38;5061911;28;20048;-64
2021/04/18 06:47:39;;;;;;;1999.90;999.90;;;;;;;7.29;93.25;98403.44;5062087;28;20496;-64
2021/04/18 06:50:07;;;;;;;1999.90;999.90;;;;;;;7.80;92.37;98411.84;5064748;28;20049;-64
2021/04/18 06:52:34;;;;;;;1999.90;999.90;;;;;;;7.42;92.82;98415.59;5062445;28;20052;-64
2021/04/18 06:55:01;;;;;;;1999.90;999.90;;;;;;;7.36;93.77;98409.38;5061958;28;20736;-64
2021/04/18 06:57:28;;;;;;;1999.90;999.90;;;;;;;7.36;94.52;98411.31;5064829;28;20049;-64
2021/04/18 06:59:54;;;;;;;1999.90;999.90;;;;;;;6.95;95.97;98412.00;5063073;28;20139;-64
2021/04/18 07:02:29;;;;;;;1999.90;999.90;;;;;;;7.25;95.03;98413.44;5066106;28;20446;-64
2021/04/18 07:05:04;;;;;;;1999.90;999.90;;;;;;;7.29;95.09;98411.69;5061599;28;20045;-64
2021/04/18 07:07:36;;;;;;;1999.90;999.90;;;;;;;7.02;94.74;98424.25;5066143;28;20051;-64
2021/04/18 07:10:03;;;;;;;;;;;;;;;7.05;96.55;98418.16;5062910;28;20065;-64
2021/04/18 07:12:31;;;;;;;1999.90;999.90;;;;;;;7.30;94.43;98413.34;5065423;28;19929;-64
2021/04/18 07:14:58;;;;;;;1999.90;999.90;;;;;;;7.35;94.27;98421.50;5066293;28;20071;-64
2021/04/18 07:17:25;;;;;;;1999.90;999.90;;;;;;;6.68;96.66;98419.03;5063806;28;20492;-64
2021/04/18 07:20:15;;;;;;;1999.90;999.90;;;;;;;6.87;96.98;98419.81;5066217;28;20044;-64
2021/04/18 07:22:42;;;;;;;1999.90;999.90;;;;;;;6.80;97.78;98419.41;5062959;28;20139;-64
2021/04/18 07:25:09;;;;;;;1999.90;999.90;;;;;;;6.85;96.61;98424.00;5065019;28;20049;-64
2021/04/18 07:27:50;;;;;;;1999.90;999.90;;;;;;;6.16;98.37;98418.94;5062599;28;20053;-64
2021/04/18 07:30:19;;;;;;;1999.90;999.90;;;;;;;6.79;100.00;98419.69;5064737;28;20057;-63
2021/04/18 07:32:46;;;;;;;1999.90;999.90;;;;;;;7.36;96.45;98423.13;5059440;28;20048;-64
2021/04/18 07:35:35;;;;;;;1999.90;999.90;;;;;;;6.82;97.41;98424.59;5060896;28;20430;-64
2021/04/18 07:38:25;;;;;;;1999.90;999.90;;;;;;;6.69;98.88;98431.66;5065129;28;20053;-64
2021/04/18 07:40:54;;;;;;;1999.90;999.90;;;;;;;6.96;97.02;98419.97;5058758;28;20492;-64
2021/04/18 07:43:20;;;;;;;1999.90;999.90;;;;;;;6.70;98.88;98428.63;5063595;28;20492;-64
2021/04/18 07:45:48;;;;;;;1999.90;999.90;;;;;;;6.08;100.00;98428.66;5064286;28;20037;-63
2021/04/18 07:48:16;;;;;;;1999.90;999.90;;;;;;;6.65;100.00;98430.63;5065904;28;20052;-63
2021/04/18 07:50:46;;;;;;;1999.90;999.90;;;;;;;7.18;97.35;98430.31;5059211;28;20049;-64
2021/04/18 07:53:16;;;;;;;1999.90;999.90;;;;;;;7.33;96.05;98426.47;5062123;28;20457;-63
2021/04/18 07:55:42;;;;;;;1999.90;999.90;;;;;;;7.59;94.91;98428.75;5062363;28;20048;-64
2021/04/18 07:58:10;;;;;;;1999.90;999.90;;;;;;;8.19;93.01;98422.34;5060992;28;20041;-64
2021/04/18 08:00:36;;;;;;;1999.90;999.90;;;;;;;7.34;94.96;98428.13;5066281;28;20045;-64
2021/04/18 08:03:03;;;;;;;1999.90;999.90;;;;;;;7.79;95.22;98426.75;5062423;28;20553;-64
2021/04/18 08:05:32;;;;;;;1999.90;999.90;;;;;;;7.90;95.60;98425.41;5065813;28;20059;-64
2021/04/18 08:08:06;;;;;;;1999.90;999.90;;;;;;;7.43;95.93;98427.41;5063708;28;20052;-64
2021/04/18 08:10:46;;;;;;;1999.90;999.90;;;;;;;6.73;99.99;98437.38;5065935;28;20553;-64
2021/04/18 08:13:23;;;;;;;1999.90;999.90;;;;;;;6.20;100.00;98424.69;5067814;28;20431;-63
2021/04/18 08:15:52;;;;;;;1999.90;999.90;;;;;;;6.98;100.00;98426.00;5065321;28;20405;-64
2021/04/18 08:18:33;;;;;;;1999.90;999.90;;;;;;;6.82;97.74;98424.59;5068713;28;20128;-64
2021/04/18 08:21:00;;;;;;;1999.90;999.90;;;;;;;7.10;96.95;98424.69;5064675;28;20052;-63
2021/04/18 08:23:38;;;;;;;1999.90;999.90;;;;;;;8.19;94.00;98421.53;5068510;28;20049;-64
2021/04/18 08:26:12;;;;;;;1999.90;999.90;;;;;;;8.52;92.61;98424.97;5063639;28;20404;-64
2021/04/18 08:29:03;;;;;;;1999.90;999.90;;;;;;;8.35;92.79;98417.31;5067301;28;20051;-64
2021/04/18 08:31:53;;;;;;;1999.90;999.90;;;;;;;8.43;92.86;98422.09;5066756;28;20068;-64
2021/04/18 08:34:31;;;;;;;1999.90;999.90;;;;;;;8.41;91.85;98418.00;5065200;28;20438;-64
2021/04/18 08:36:59;;;;;;;1999.90;999.90;;;;;;;8.27;92.05;98418.84;5064279;28;20404;-64
2021/04/18 08:39:28;;;;;;;1999.90;999.90;;;;;;;6.73;93.86;98421.72;5065111;28;20397;-64
2021/04/18 08:42:00;;;;;;;1999.90;999.90;;;;;;;6.84;97.20;98423.16;5069011;28;20048;-64
2021/04/18 08:44:42;;;;;;;1999.90;999.90;;;;;;;7.32;95.47;98416.59;5060428;28;20068;-64
2021/04/18 08:47:15;;;;;;;1999.90;999.90;;;;;;;6.85;95.88;98426.75;5062345;28;20113;-64
2021/04/18 08:49:43;;;;;;;1999.90;999.90;;;;;;;6.46;97.65;98427.88;5063512;28;20286;-64
2021/04/18 08:52:23;;;;;;;1999.90;999.90;;;;;;;7.68;95.57;98413.19;5066859;28;20049;-64
2021/04/18 08:54:52;;;;;;;1999.90;999.90;;;;;;;8.34;92.41;98406.63;5064555;28;20044;-64
2021/04/18 08:57:27;;;;;;;1999.90;999.90;;;;;;;9.12;88.03;98410.00;5068202;28;20044;-64
2021/04/18 08:59:56;;;;;;;1999.90;999.90;;;;;;;8.84;86.95;98414.03;5062936;28;20040;-64
2021/04/18 09:02:24;;;;;;;1999.90;999.90;;;;;;;9.35;86.14;98407.25;5066047;28;20059;-63
2021/04/18 09:04:56;;;;;;;1999.90;999.90;;;;;;;7.68;86.27;98412.34;5060223;28;20068;-63
2021/04/18 09:07:25;;;;;;;1999.90;999.90;;;;;;;7.02;90.25;98420.69;5064047;28;20048;-63
2021/04/18 09:09:52;;;;;;;1999.90;999.90;;;;;;;6.73;93.86;98423.63;5068697;28;20048;-63
2021/04/18 09:12:18;;;;;;;1999.90;999.90;;;;;;;7.33;92.70;98418.22;5065963;28;20466;-63
2021/04/18 09:14:47;;;;;;;1999.90;999.90;;;;;;;7.30;91.43;98424.34;5065910;28;20465;-63
2021/04/18 09:17:24;;;;;;;1999.90;999.90;;;;;;;7.07;93.75;98419.78;5063815;28;20048;-63
2021/04/18 09:19:53;;;;;;;1999.90;999.90;;;;;;;7.21;90.42;98423.41;5059965;28;20106;-64
2021/04/18 09:22:36;;;;;;;1999.90;999.90;;;;;;;7.66;89.90;98428.38;5065053;28;20407;-63
2021/04/18 09:25:13;;;;;;;1999.90;999.90;;;;;;;7.57;87.34;98422.75;5067870;28;20400;-63
2021/04/18 09:27:44;;;;;;;1999.90;999.90;;;;;;;8.30;86.37;98417.41;5065851;28;20491;-64
2021/04/18 09:30:12;;;;;;;1999.90;999.90;;;;;;;7.43;88.74;98421.91;5067479;28;20430;-64
2021/04/18 09:32:44;;;;;;;1999.90;999.90;;;;;;;7.93;88.23;98419.28;5064996;28;20048;-64
2021/04/18 09:35:12;;;;;;;1999.90;999.90;;;;;;;8.09;87.65;98423.38;5063816;28;20098;-64
2021/04/18 09:37:40;;;;;;;1999.90;999.90;;;;;;;7.89;87.19;98419.09;5064141;28;20134;-64
2021/04/18 09:40:10;;;;;;;1999.90;999.90;;;;;;;8.21;85.94;98417.34;5064847;28;20323;-64
2021/04/18 09:42:41;;;;;;;1999.90;999.90;;;;;;;7.55;88.49;98423.06;5068168;28;20049;-65
2021/04/18 09:45:22;;;;;;;1999.90;999.90;;;;;;;7.60;89.07;98422.13;5066912;28;20060;-63
2021/04/18 09:48:15;;;;;;;1999.90;999.90;;;;;;;7.69;87.77;98425.81;5065369;28;20080;-64
2021/04/18 09:50:42;;;;;;;1999.90;999.90;;;;;;;8.19;86.82;98416.03;5067644;28;20462;-64
2021/04/18 09:53:24;;;;;;;1999.90;999.90;;;;;;;8.21;86.47;98417.34;5063897;28;20294;-64
2021/04/18 09:55:50;;;;;;;;;;;;;;;8.34;86.03;98417.63;5062255;28;20480;-64
2021/04/18 09:58:36;;;;;;;1999.90;999.90;;;;;;;9.13;83.29;98419.13;5065808;28;19928;-64
2021/04/18 10:01:04;;;;;;;1999.90;999.90;;;;;;;8.80;82.78;98413.84;5063551;28;20098;-65
2021/04/18 10:03:35;;;;;;;1999.90;999.90;;;;;;;9.03;83.74;98422.94;5064483;28;20052;-64
2021/04/18 10:06:03;;;;;;;1999.90;999.90;;;;;;;7.67;85.23;98427.25;5061990;28;20037;-65
2021/04/18 10:08:32;;;;;;;1999.90;999.90;;;;;;;7.89;87.69;98423.78;5068727;28;20091;-65
2021/04/18 10:11:16;;;;;;;1999.90;999.90;;;;;;;7.93;85.72;98424.81;5060088;28;20503;-65
2021/04/18 10:13:55;;;;;;;1999.90;999.90;;;;;;;8.05;86.85;98427.03;5065366;28;20041;-63
2021/04/18 10:16:33;;;;;;;1999.90;999.90;;;;;;;8.96;84.62;98430.81;5060963;28;20040;-64
2021/04/18 10:19:19;;;;;;;1999.90;999.90;;;;;;;9.52;81.32;98423.06;5062950;28;20041;-65
2021/04/18 10:22:00;;;;;;;1999.90;999.90;;;;;;;8.84;80.96;98425.88;5066268;28;20066;-65
2021/04/18 10:24:31;;;;;;;1999.90;999.90;;;;;;;8.75;82.22;98428.56;5059714;28;20053;-65
2021/04/18 10:26:57;;;;;;;1999.90;999.90;;;;;;;8.45;81.71;98430.06;5065455;28;20413;-64
2021/04/18 10:29:24;;;;;;;1999.90;999.90;;;;;;;7.99;86.21;98434.59;5063139;28;20055;-64
2021/04/18 10:31:50;;;;;;;1999.90;999.90;;;;;;;7.12;87.91;98430.72;5064025;28;20455;-64
2021/04/18 10:34:16;;;;;;;1999.90;999.90;;;;;;;7.81;89.29;98428.06;5066070;28;20060;-64
2021/04/18 10:36:46;;;;;;;1999.90;999.90;;;;;;;8.68;86.70;98428.19;5065213;28;20503;-64
2021/04/18 10:39:14;;;;;;;1999.90;999.90;;;;;;;8.86;84.52;98433.81;5063223;28;20492;-64
2021/04/18 10:41:42;;;;;;;1999.90;999.90;;;;;;;9.23;81.95;98426.31;5064884;28;20114;-65
2021/04/18 10:44:08;;;;;;;1999.90;999.90;;;;;;;9.41;82.95;98424.47;5062563;28;20040;-63
2021/04/18 10:46:35;;;;;;;1999.90;999.90;;;;;;;9.80;81.91;98418.16;5063157;28;20439;-62
2021/04/18 10:49:01;;;;;;;1999.90;999.90;;;;;;;10.09;81.27;98414.03;5067926;28;20127;-63
2021/04/18 10:51:27;;;;;;;1999.90;999.90;;;;;;;10.29;78.51;98417.34;5059834;28;20048;-64
2021/04/18 10:53:53;;;;;;;1999.90;999.90;;;;;;;9.09;82.41;98420.88;5062981;28;20093;-63
2021/04/18 10:56:19;;;;;;;1999.90;999.90;;;;;;;8.89;82.73;98416.69;5063566;28;20044;-64
2021/04/18 10:58:46;;;;;;;1999.90;999.90;;;;;;;9.47;80.11;98417.69;5066339;28;20047;-64
2021/04/18 11:01:12;;;;;;;1999.90;999.90;;;;;;;10.11;77.01;98409.00;5061325;28;20044;-63
2021/04/18 11:03:38;;;;;;;1999.90;999.90;;;;;;;8.79;81.04;98415.78;5064432;28;20059;-63
2021/04/18 11:06:05;;;;;;;1999.90;999.90;;;;;;;9.32;80.33;98413.41;5062474;28;20047;-63
2021/04/18 11:08:32;;;;;;;1999.90;999.90;;;;;;;8.97;80.08;98408.44;5065684;28;20072;-63